createdAt,value
2022-12-11T00:00:43.660Z,7.03
2022-12-11T00:03:16.125Z,7.53
2022-12-11T00:05:46.522Z,5.25
2022-12-11T00:08:17.342Z,8.10
2022-12-11T00:10:51.361Z,6.50
2022-12-11T00:13:20.565Z,6.93
2022-12-11T00:15:49.717Z,6.32
2022-12-11T00:18:18.943Z,7.18
2022-12-11T00:20:48.271Z,7.20
2022-12-11T00:23:19.095Z,6.38
2022-12-11T00:25:50.109Z,8.27
2022-12-11T00:28:19.864Z,6.63
2022-12-11T00:30:49.692Z,6.35
2022-12-11T00:33:19.529Z,1.55
2022-12-11T00:35:49.778Z,4.80
2022-12-11T00:38:22.915Z,5.57
2022-12-11T00:40:52.218Z,7.32
2022-12-11T00:43:21.364Z,5.25
2022-12-11T00:45:50.616Z,8.27
2022-12-11T00:48:19.822Z,4.82
2022-12-11T00:50:49.200Z,6.82
2022-12-11T00:53:18.426Z,4.45
2022-12-11T00:55:49.056Z,5.95
2022-12-11T00:58:18.246Z,4.40
2022-12-11T01:00:48.789Z,5.60
2022-12-11T01:03:19.134Z,5.28
2022-12-11T01:05:55.258Z,6.90
2022-12-11T01:08:24.517Z,4.15
2022-12-11T01:11:03.904Z,8.32
2022-12-11T01:13:33.115Z,5.22
2022-12-11T01:16:02.349Z,4.25
2022-12-11T01:18:31.556Z,4.00
2022-12-11T01:21:00.668Z,4.55
2022-12-11T01:23:29.907Z,6.22
2022-12-11T01:26:06.085Z,5.47
2022-12-11T01:28:36.475Z,8.98
2022-12-11T01:31:10.693Z,8.38
2022-12-11T01:33:40.355Z,8.98
2022-12-11T01:36:11.488Z,8.65
2022-12-11T01:38:40.661Z,12.15
2022-12-11T01:41:12.272Z,8.18
2022-12-11T01:44:00.020Z,9.80
2022-12-11T01:46:30.276Z,7.43
2022-12-11T01:49:00.946Z,6.80
2022-12-11T01:51:33.378Z,8.68
2022-12-11T01:54:08.327Z,10.30
2022-12-11T01:56:41.555Z,8.40
2022-12-11T01:59:12.071Z,9.48
2022-12-11T02:01:46.189Z,11.50
2022-12-11T02:04:16.519Z,9.40
2022-12-11T02:06:48.581Z,10.02
2022-12-11T02:09:20.507Z,8.07
2022-12-11T02:11:58.805Z,10.63
2022-12-11T02:14:34.539Z,8.35
2022-12-11T02:19:55.288Z,6.43
2022-12-11T02:22:32.565Z,8.23
2022-12-11T02:25:11.683Z,5.00
2022-12-11T02:27:47.635Z,7.63
2022-12-11T02:30:19.565Z,8.40
2022-12-11T02:32:55.449Z,8.85
2022-12-11T02:35:28.681Z,8.13
2022-12-11T02:38:03.848Z,7.50
2022-12-11T02:40:37.057Z,8.18
2022-12-11T02:43:10.052Z,9.03
2022-12-11T02:45:42.847Z,6.93
2022-12-11T02:48:13.757Z,8.00
2022-12-11T02:50:48.160Z,9.82
2022-12-11T02:53:20.469Z,8.05
2022-12-11T02:55:54.110Z,8.00
2022-12-11T02:58:27.380Z,5.68
2022-12-11T03:00:58.192Z,7.70
2022-12-11T03:03:27.639Z,8.50
2022-12-11T03:05:57.249Z,8.35
2022-12-11T03:08:26.843Z,5.47
2022-12-11T03:10:55.986Z,6.78
2022-12-11T03:13:26.067Z,7.13
2022-12-11T03:16:10.110Z,6.75
2022-12-11T03:18:46.774Z,6.07
2022-12-11T03:21:23.393Z,7.70
2022-12-11T03:24:00.009Z,6.80
2022-12-11T03:26:30.820Z,6.25
2022-12-11T03:29:04.411Z,7.45
2022-12-11T03:31:40.980Z,9.70
2022-12-11T03:34:16.153Z,7.93
2022-12-11T03:36:47.643Z,8.88
2022-12-11T03:39:20.830Z,12.60
2022-12-11T03:41:52.863Z,12.50
2022-12-11T03:44:23.395Z,14.93
2022-12-11T03:46:57.025Z,19.58
2022-12-11T03:49:32.281Z,17.95
2022-12-11T03:52:04.551Z,16.15
2022-12-11T03:54:34.290Z,19.60
2022-12-11T03:57:06.130Z,15.38
2022-12-11T03:59:36.413Z,17.23
2022-12-11T04:02:11.389Z,13.65
2022-12-11T04:04:42.130Z,12.63
2022-12-11T04:07:11.634Z,14.13
2022-12-11T04:09:40.849Z,11.20
2022-12-11T04:12:10.102Z,17.15
2022-12-11T04:14:56.060Z,13.77
2022-12-11T04:17:43.810Z,19.85
2022-12-11T04:20:30.421Z,16.17
2022-12-11T04:23:16.723Z,15.73
2022-12-11T04:25:45.935Z,15.55
2022-12-11T04:28:15.219Z,17.30
2022-12-11T04:30:50.900Z,13.60
2022-12-11T04:35:50.378Z,14.73
2022-12-11T04:38:19.592Z,12.00
2022-12-11T04:40:48.738Z,12.75
2022-12-11T04:43:17.896Z,10.02
2022-12-11T04:45:47.174Z,12.23
2022-12-11T04:48:16.428Z,10.07
2022-12-11T04:50:47.106Z,10.20
2022-12-11T04:53:16.384Z,11.88
2022-12-11T04:55:45.567Z,11.57
2022-12-11T04:58:14.889Z,10.35
2022-12-11T05:00:44.602Z,12.20
2022-12-11T05:03:13.811Z,9.32
2022-12-11T05:05:43.166Z,12.07
2022-12-11T05:08:13.956Z,10.77
2022-12-11T05:10:49.970Z,10.27
2022-12-11T05:13:19.408Z,13.15
2022-12-11T05:15:48.686Z,12.35
2022-12-11T05:18:17.936Z,10.48
2022-12-11T05:20:49.434Z,7.93
2022-12-11T05:23:20.161Z,6.95
2022-12-11T05:25:54.436Z,11.32
2022-12-11T05:28:26.785Z,11.40
2022-12-11T05:31:01.796Z,10.18
2022-12-11T05:33:31.879Z,7.15
2022-12-11T05:36:02.372Z,8.80
2022-12-11T05:38:32.981Z,6.50
2022-12-11T05:41:03.810Z,5.50
2022-12-11T05:43:36.073Z,6.57
2022-12-11T05:46:09.896Z,8.68
2022-12-11T05:48:39.760Z,6.50
2022-12-11T05:51:12.318Z,6.22
2022-12-11T05:53:44.130Z,6.75
2022-12-11T05:56:15.231Z,5.75
2022-12-11T05:58:46.423Z,7.00
2022-12-11T06:01:18.749Z,7.53
2022-12-11T06:03:48.261Z,6.55
2022-12-11T06:06:18.254Z,9.00
2022-12-11T06:08:51.668Z,5.93
2022-12-11T06:11:24.115Z,8.18
2022-12-11T06:13:54.379Z,9.82
2022-12-11T06:16:24.393Z,11.55
2022-12-11T06:18:57.160Z,7.40
2022-12-11T06:21:29.960Z,5.47
2022-12-11T06:24:02.800Z,7.00
2022-12-11T06:26:32.494Z,6.60
2022-12-11T06:29:01.711Z,9.80
2022-12-11T06:31:31.028Z,11.93
2022-12-11T06:34:00.248Z,9.07
2022-12-11T06:36:29.436Z,9.48
2022-12-11T06:39:00.261Z,10.73
2022-12-11T06:41:29.463Z,11.70
2022-12-11T06:43:58.768Z,7.93
2022-12-11T06:46:27.963Z,10.02
2022-12-11T06:48:57.205Z,9.73
2022-12-11T06:51:26.544Z,8.45
2022-12-11T06:53:57.000Z,9.30
2022-12-11T06:56:27.830Z,7.93
2022-12-11T06:59:00.586Z,8.48
2022-12-11T07:01:32.268Z,8.07
2022-12-11T07:04:02.333Z,7.30
2022-12-11T07:06:32.054Z,8.85
2022-12-11T07:09:01.299Z,7.10
2022-12-11T07:11:31.926Z,6.25
2022-12-11T07:14:01.650Z,10.30
2022-12-11T07:16:30.918Z,8.00
2022-12-11T07:19:01.225Z,10.15
2022-12-11T07:21:30.433Z,9.18
2022-12-11T07:23:59.717Z,7.70
2022-12-11T07:26:30.186Z,8.23
2022-12-11T07:29:01.599Z,10.25
2022-12-11T07:31:32.634Z,11.85
2022-12-11T07:34:03.540Z,8.20
2022-12-11T07:36:33.542Z,8.20
2022-12-11T07:39:03.930Z,10.43
2022-12-11T07:41:35.265Z,8.65
2022-12-11T07:44:06.574Z,9.70
2022-12-11T07:46:36.410Z,9.82
2022-12-11T07:49:07.601Z,9.02
2022-12-11T07:51:37.934Z,10.35
2022-12-11T07:54:15.342Z,9.73
2022-12-11T07:56:52.817Z,8.27
2022-12-11T07:59:24.481Z,6.97
2022-12-11T08:01:53.759Z,9.55
2022-12-11T08:04:22.904Z,10.48
2022-12-11T08:06:51.986Z,9.18
2022-12-11T08:09:23.069Z,9.90
2022-12-11T08:11:52.439Z,10.68
2022-12-11T08:14:23.556Z,8.82
2022-12-11T08:16:52.797Z,11.95
2022-12-11T08:19:21.985Z,9.43
2022-12-11T08:21:51.405Z,9.02
2022-12-11T08:24:21.387Z,10.07
2022-12-11T08:26:50.807Z,10.07
2022-12-11T08:29:19.968Z,9.73
2022-12-11T08:31:50.664Z,9.63
2022-12-11T08:34:19.912Z,7.78
2022-12-11T08:36:49.058Z,10.77
2022-12-11T08:39:18.184Z,9.52
2022-12-11T08:41:47.526Z,9.25
2022-12-11T08:44:17.177Z,12.15
2022-12-11T08:46:46.500Z,10.63
2022-12-11T08:49:17.950Z,8.32
2022-12-11T08:51:47.250Z,11.45
2022-12-11T08:54:16.519Z,9.27
2022-12-11T08:56:45.668Z,12.63
2022-12-11T08:59:14.807Z,9.10
2022-12-11T09:01:44.028Z,8.85
2022-12-11T09:04:13.252Z,10.20
2022-12-11T09:06:43.928Z,11.52
2022-12-11T09:09:13.254Z,11.60
2022-12-11T09:11:42.940Z,9.52
2022-12-11T09:14:12.199Z,9.90
2022-12-11T09:16:42.271Z,8.88
2022-12-11T09:19:18.169Z,9.85
2022-12-11T09:21:48.999Z,11.98
2022-12-11T09:24:18.592Z,13.27
2022-12-11T09:26:47.790Z,15.73
2022-12-11T09:29:17.087Z,8.63
2022-12-11T09:31:47.312Z,11.45
2022-12-11T09:34:16.490Z,14.02
2022-12-11T09:36:46.000Z,9.73
2022-12-11T09:39:17.770Z,11.82
2022-12-11T09:41:57.478Z,10.13
2022-12-11T09:44:45.024Z,12.15
2022-12-11T09:47:22.390Z,10.15
2022-12-11T09:49:55.677Z,11.70
2022-12-11T09:52:31.272Z,12.95
2022-12-11T09:55:05.111Z,12.80
2022-12-11T09:57:50.897Z,11.50
2022-12-11T10:00:30.683Z,10.68
2022-12-11T10:03:21.172Z,11.80
2022-12-11T10:05:58.384Z,11.32
2022-12-11T10:08:40.562Z,9.48
2022-12-11T10:11:31.200Z,12.52
2022-12-11T10:14:08.593Z,11.88
2022-12-11T10:16:42.204Z,11.93
2022-12-11T10:19:18.906Z,13.32
2022-12-11T10:21:49.948Z,12.73
2022-12-11T10:24:57.978Z,14.23
2022-12-11T10:27:24.010Z,13.10
2022-12-11T10:30:03.839Z,18.33
2022-12-11T10:32:44.403Z,20.70
2022-12-11T10:35:22.395Z,18.45
2022-12-11T10:37:51.833Z,17.23
2022-12-11T10:40:24.076Z,19.73
2022-12-11T10:42:57.937Z,21.17
2022-12-11T10:45:27.388Z,24.38
2022-12-11T10:48:30.521Z,26.13
2022-12-11T10:51:03.385Z,23.75
2022-12-11T10:54:07.344Z,28.38
2022-12-11T10:56:40.821Z,24.02
2022-12-11T10:59:25.040Z,21.90
2022-12-11T11:02:04.545Z,23.17
2022-12-11T11:04:37.312Z,16.55
2022-12-11T11:07:26.776Z,12.65
2022-12-11T11:10:16.113Z,11.88
2022-12-11T11:13:14.429Z,13.90
2022-12-11T11:15:45.409Z,12.48
2022-12-11T11:18:35.909Z,10.52
2022-12-11T11:21:39.006Z,13.70
2022-12-11T11:24:17.222Z,15.13
2022-12-11T11:27:17.927Z,13.65
2022-12-11T11:33:07.010Z,13.43
2022-12-11T11:38:38.014Z,14.07
2022-12-11T11:41:17.403Z,15.38
2022-12-11T11:43:49.105Z,14.18
2022-12-11T11:46:22.286Z,16.95
2022-12-11T11:49:00.786Z,20.30
2022-12-11T11:51:36.381Z,15.75
2022-12-11T11:54:37.001Z,15.38
2022-12-11T11:57:15.793Z,16.08
2022-12-11T11:59:49.658Z,12.02
2022-12-11T12:02:20.943Z,12.18
2022-12-11T12:04:52.404Z,10.50
2022-12-11T12:07:32.657Z,10.23
2022-12-11T12:10:10.239Z,11.18
2022-12-11T12:12:48.943Z,11.77
2022-12-11T12:15:27.812Z,10.63
2022-12-11T12:17:59.269Z,11.68
2022-12-11T12:20:44.890Z,10.57
2022-12-11T12:23:37.115Z,7.00
2022-12-11T12:26:14.429Z,9.00
2022-12-11T12:28:52.384Z,10.02
2022-12-11T12:31:55.188Z,8.18
2022-12-11T12:35:13.473Z,11.35
2022-12-11T12:37:58.342Z,10.88
2022-12-11T12:40:34.482Z,13.82
2022-12-11T12:43:24.917Z,12.95
2022-12-11T12:46:01.365Z,13.63
2022-12-11T12:48:31.257Z,15.93
2022-12-11T12:51:00.790Z,14.43
2022-12-11T12:53:36.352Z,19.55
2022-12-11T12:56:07.511Z,21.45
2022-12-11T12:58:44.350Z,15.48
2022-12-11T13:01:19.719Z,13.98
2022-12-11T13:03:55.848Z,19.55
2022-12-11T13:06:38.268Z,23.85
2022-12-11T13:09:19.483Z,20.40
2022-12-11T13:11:52.479Z,20.40
2022-12-11T13:14:30.167Z,20.83
2022-12-11T13:17:26.423Z,22.85
2022-12-11T13:20:15.589Z,20.38
2022-12-11T13:22:53.664Z,33.63
2022-12-11T13:25:28.411Z,30.27
2022-12-11T13:28:07.847Z,22.23
2022-12-11T13:30:37.112Z,31.67
2022-12-11T13:33:09.383Z,22.85
2022-12-11T13:35:39.138Z,31.50
2022-12-11T13:38:17.513Z,31.65
2022-12-11T13:40:54.527Z,22.88
2022-12-11T13:43:29.097Z,23.67
2022-12-11T13:46:01.376Z,23.83
2022-12-11T13:48:36.686Z,29.95
2022-12-11T13:51:08.296Z,45.10
2022-12-11T13:53:37.532Z,49.95
2022-12-11T13:56:10.070Z,48.72
2022-12-11T13:58:41.468Z,49.78
2022-12-11T14:01:14.720Z,56.13
2022-12-11T14:03:50.664Z,63.95
2022-12-11T14:06:20.666Z,58.33
2022-12-11T14:08:54.809Z,59.60
2022-12-11T14:11:28.398Z,52.30
2022-12-11T14:13:59.826Z,34.60
2022-12-11T14:16:29.856Z,52.50
2022-12-11T14:19:04.973Z,60.67
2022-12-11T14:21:34.820Z,77.97
2022-12-11T14:24:07.011Z,53.67
2022-12-11T14:26:39.308Z,56.03
2022-12-11T14:29:08.961Z,102.95
2022-12-11T14:31:42.990Z,98.78
2022-12-11T14:34:19.628Z,153.52
2022-12-11T14:36:50.318Z,156.30
2022-12-11T14:39:24.404Z,187.18
2022-12-11T14:41:59.902Z,186.85
2022-12-11T14:44:33.545Z,130.10
2022-12-11T14:47:06.154Z,101.18
2022-12-11T14:49:44.689Z,106.30
2022-12-11T14:52:19.357Z,119.25
2022-12-11T14:54:53.544Z,104.22
2022-12-11T14:57:28.805Z,110.80
2022-12-11T14:59:59.081Z,113.72
2022-12-11T15:02:32.759Z,110.63
2022-12-11T15:05:18.582Z,112.18
2022-12-11T15:07:59.322Z,119.28
2022-12-11T15:10:35.923Z,110.18
2022-12-11T15:13:08.275Z,147.02
2022-12-11T15:15:46.674Z,149.60
2022-12-11T15:18:22.945Z,149.35
2022-12-11T15:20:55.560Z,131.35
2022-12-11T15:23:25.035Z,121.10
2022-12-11T15:25:58.473Z,172.77
2022-12-11T15:28:35.105Z,129.63
2022-12-11T15:31:07.018Z,132.52
2022-12-11T15:33:47.284Z,119.10
2022-12-11T15:36:32.341Z,105.70
2022-12-11T15:39:01.582Z,112.93
2022-12-11T15:41:33.810Z,109.75
2022-12-11T15:44:06.416Z,106.53
2022-12-11T15:46:38.599Z,109.95
2022-12-11T15:49:14.361Z,105.18
2022-12-11T15:54:13.022Z,102.00
2022-12-11T15:56:42.239Z,88.80
2022-12-11T15:59:13.704Z,91.40
2022-12-11T16:01:43.190Z,88.40
2022-12-11T16:04:12.568Z,99.57
2022-12-11T16:06:45.734Z,100.13
2022-12-11T16:09:14.958Z,98.90
2022-12-11T16:11:44.300Z,78.15
2022-12-11T16:14:14.913Z,86.50
2022-12-11T16:16:44.075Z,89.05
2022-12-11T16:19:13.318Z,100.82
2022-12-11T16:21:42.536Z,93.70
2022-12-11T16:24:11.756Z,80.43
2022-12-11T16:26:41.153Z,71.88
2022-12-11T16:29:10.409Z,76.72
2022-12-11T16:31:41.120Z,73.95
2022-12-11T16:34:10.339Z,85.22
2022-12-11T16:36:39.850Z,67.05
2022-12-11T16:39:09.093Z,86.90
2022-12-11T16:41:38.394Z,76.18
2022-12-11T16:44:08.363Z,69.85
2022-12-11T16:46:37.613Z,72.22
2022-12-11T16:49:08.387Z,75.72
2022-12-11T16:51:38.561Z,79.10
2022-12-11T16:54:08.299Z,78.70
2022-12-11T16:56:37.556Z,81.20
2022-12-11T16:59:07.213Z,65.00
2022-12-11T17:01:37.057Z,77.80
2022-12-11T17:04:07.888Z,69.60
2022-12-11T17:06:37.104Z,77.80
2022-12-11T17:09:07.635Z,83.88
2022-12-11T17:11:36.827Z,74.20
2022-12-11T17:14:06.044Z,69.53
2022-12-11T17:16:35.209Z,81.85
2022-12-11T17:19:07.674Z,73.60
2022-12-11T17:21:39.418Z,77.78
2022-12-11T17:24:09.007Z,99.50
2022-12-11T17:26:38.683Z,68.22
2022-12-11T17:29:07.900Z,89.50
2022-12-11T17:31:37.106Z,99.18
2022-12-11T17:34:06.912Z,71.38
2022-12-11T17:36:37.953Z,64.30
2022-12-11T17:39:07.182Z,60.45
2022-12-11T17:41:36.569Z,64.53
2022-12-11T17:44:05.860Z,61.65
2022-12-11T17:46:35.135Z,55.47
2022-12-11T17:49:04.606Z,43.33
2022-12-11T17:51:33.879Z,63.70
2022-12-11T17:54:04.771Z,61.55
2022-12-11T17:56:36.676Z,48.78
2022-12-11T17:59:06.300Z,55.38
2022-12-11T18:01:35.663Z,69.00
2022-12-11T18:04:05.335Z,69.85
2022-12-11T18:06:34.532Z,46.30
2022-12-11T18:09:07.144Z,60.53
2022-12-11T18:11:36.695Z,66.03
2022-12-11T18:14:05.868Z,66.55
2022-12-11T18:16:38.489Z,62.15
2022-12-11T18:19:08.899Z,60.65
2022-12-11T18:21:43.243Z,67.03
2022-12-11T18:24:14.650Z,54.92
2022-12-11T18:26:44.564Z,62.38
2022-12-11T18:29:13.791Z,72.07
2022-12-11T18:31:43.538Z,74.07
2022-12-11T18:34:13.836Z,60.90
2022-12-11T18:36:44.011Z,81.20
2022-12-11T18:39:14.636Z,68.22
2022-12-11T18:41:43.779Z,72.97
2022-12-11T18:44:12.988Z,59.17
2022-12-11T18:46:42.255Z,51.45
2022-12-11T18:49:11.416Z,57.35
2022-12-11T18:51:40.639Z,56.83
2022-12-11T18:54:10.150Z,50.58
2022-12-11T18:56:42.133Z,38.75
2022-12-11T18:59:15.078Z,59.40
2022-12-11T19:01:44.423Z,51.63
2022-12-11T19:04:13.640Z,50.50
2022-12-11T19:06:42.863Z,44.75
2022-12-11T19:09:14.428Z,52.30
2022-12-11T19:11:45.835Z,51.15
2022-12-11T19:14:16.065Z,62.30
2022-12-11T19:16:47.353Z,53.88
2022-12-11T19:19:19.383Z,52.60
2022-12-11T19:21:48.615Z,55.33
2022-12-11T19:24:20.139Z,56.33
2022-12-11T19:26:50.955Z,38.72
2022-12-11T19:29:23.252Z,37.97
2022-12-11T19:31:53.076Z,34.30
2022-12-11T19:34:22.208Z,44.20
2022-12-11T19:36:51.697Z,39.70
2022-12-11T19:39:22.119Z,38.00
2022-12-11T19:41:52.825Z,44.03
2022-12-11T19:44:22.039Z,44.30
2022-12-11T19:46:51.290Z,44.83
2022-12-11T19:49:20.438Z,43.35
2022-12-11T19:51:49.872Z,46.10
2022-12-11T19:54:19.991Z,43.58
2022-12-11T19:56:49.349Z,41.50
2022-12-11T19:59:20.020Z,36.40
2022-12-11T20:01:49.854Z,43.20
2022-12-11T20:04:20.466Z,36.65
2022-12-11T20:06:50.185Z,48.30
2022-12-11T20:09:19.735Z,36.05
2022-12-11T20:11:49.156Z,42.30
2022-12-11T20:14:23.402Z,41.45
2022-12-11T20:17:11.048Z,43.00
2022-12-11T20:19:42.154Z,37.30
2022-12-11T20:22:11.501Z,34.55
2022-12-11T20:24:40.954Z,33.90
2022-12-11T20:27:10.509Z,35.55
2022-12-11T20:29:41.379Z,39.13
2022-12-11T20:32:11.693Z,47.80
2022-12-11T20:34:41.736Z,42.83
2022-12-11T20:37:10.905Z,48.05
2022-12-11T20:39:40.183Z,43.33
2022-12-11T20:42:11.439Z,36.65
2022-12-11T20:44:47.348Z,45.28
2022-12-11T20:47:20.168Z,43.10
2022-12-11T20:49:49.712Z,40.42
2022-12-11T20:52:19.025Z,40.58
2022-12-11T20:54:49.265Z,40.78
2022-12-11T20:57:18.405Z,46.67
2022-12-11T20:59:49.994Z,38.72
2022-12-11T21:02:19.294Z,42.03
2022-12-11T21:04:48.453Z,51.47
2022-12-11T21:07:17.817Z,45.60
2022-12-11T21:09:47.005Z,45.53
2022-12-11T21:12:16.196Z,48.47
2022-12-11T21:14:45.336Z,39.22
2022-12-11T21:17:16.039Z,37.83
2022-12-11T21:19:45.119Z,45.85
2022-12-11T21:22:14.300Z,49.83
2022-12-11T21:24:43.481Z,38.65
2022-12-11T21:27:12.803Z,38.40
2022-12-11T21:29:42.005Z,38.72
2022-12-11T21:32:11.247Z,39.28
2022-12-11T21:34:41.941Z,30.83
2022-12-11T21:37:11.109Z,33.15
2022-12-11T21:39:40.290Z,34.05
2022-12-11T21:42:09.426Z,31.65
2022-12-11T21:45:37.532Z,34.78
2022-12-11T21:47:28.189Z,32.53
2022-12-11T21:49:59.881Z,37.65
2022-12-11T21:52:29.099Z,28.13
2022-12-11T21:54:58.399Z,31.95
2022-12-11T21:57:27.632Z,27.45
2022-12-11T21:59:56.804Z,26.63
2022-12-11T22:02:26.108Z,24.50
2022-12-11T22:04:56.294Z,24.92
2022-12-11T22:07:26.929Z,29.38
2022-12-11T22:09:56.117Z,28.70
2022-12-11T22:12:26.991Z,24.77
2022-12-11T22:14:56.222Z,28.05
2022-12-11T22:17:25.506Z,22.98
2022-12-11T22:19:54.762Z,20.42
2022-12-11T22:22:23.867Z,18.70
2022-12-11T22:24:54.601Z,20.40
2022-12-11T22:27:24.203Z,27.50
2022-12-11T22:29:53.432Z,29.55
2022-12-11T22:32:22.580Z,20.15
2022-12-11T22:34:51.719Z,25.50
2022-12-11T22:37:20.837Z,20.52
2022-12-11T22:39:50.121Z,16.33
2022-12-11T22:42:20.856Z,23.33
2022-12-11T22:44:49.987Z,29.90
2022-12-11T22:47:19.149Z,29.85
2022-12-11T22:49:48.368Z,28.58
2022-12-11T22:52:17.598Z,17.85
2022-12-11T22:54:46.831Z,20.02
2022-12-11T22:57:16.919Z,33.55
2022-12-11T22:59:47.680Z,36.55
2022-12-11T23:02:17.264Z,30.45
2022-12-11T23:04:46.541Z,32.75
2022-12-11T23:07:15.694Z,30.38
2022-12-11T23:09:44.841Z,28.13
2022-12-11T23:12:13.965Z,30.17
2022-12-11T23:14:43.258Z,35.90
2022-12-11T23:17:13.945Z,38.85
2022-12-11T23:19:43.136Z,46.85
2022-12-11T23:22:12.701Z,41.40
2022-12-11T23:24:42.280Z,49.53
2022-12-11T23:27:11.913Z,37.53
2022-12-11T23:29:41.231Z,48.45
2022-12-11T23:32:10.482Z,46.67
2022-12-11T23:34:41.301Z,46.65
2022-12-11T23:37:11.165Z,41.42
2022-12-11T23:39:40.449Z,31.50
2022-12-11T23:42:09.846Z,41.45
2022-12-11T23:44:39.086Z,44.90
2022-12-11T23:47:08.582Z,46.70
2022-12-11T23:49:37.832Z,38.58
2022-12-11T23:52:12.122Z,40.60
2022-12-11T23:54:41.368Z,38.93
2022-12-11T23:57:10.623Z,51.60
2022-12-11T23:59:39.804Z,47.97
